sensor_id;sensor_type;location;lat;lon;timestamp;P1;durP1;ratioP1;P2;durP2;ratioP2
12429;SDS011;6279;42.192;24.326;2024-01-15T00:00:16;52.47;;;31.43;;
12429;SDS011;6279;42.192;24.326;2024-01-15T00:02:41;46.17;;;26.23;;
12429;SDS011;6279;42.192;24.326;2024-01-15T00:05:07;40.83;;;25.43;;
12429;SDS011;6279;42.192;24.326;2024-01-15T00:07:32;40.00;;;23.40;;
12429;SDS011;6279;42.192;24.326;2024-01-15T00:09:58;43.30;;;24.63;;
12429;SDS011;6279;42.192;24.326;2024-01-15T00:12:23;34.43;;;21.90;;
12429;SDS011;6279;42.192;24.326;2024-01-15T00:14:48;34.13;;;20.50;;
12429;SDS011;6279;42.192;24.326;2024-01-15T00:17:14;34.27;;;21.47;;
12429;SDS011;6279;42.192;24.326;2024-01-15T00:19:39;31.17;;;19.63;;
12429;SDS011;6279;42.192;24.326;2024-01-15T00:22:04;34.20;;;21.03;;
12429;SDS011;6279;42.192;24.326;2024-01-15T00:24:30;30.93;;;18.73;;
12429;SDS011;6279;42.192;24.326;2024-01-15T00:26:55;36.60;;;20.43;;
12429;SDS011;6279;42.192;24.326;2024-01-15T00:29:21;38.77;;;23.27;;
12429;SDS011;6279;42.192;24.326;2024-01-15T00:31:46;36.53;;;21.80;;
12429;SDS011;6279;42.192;24.326;2024-01-15T00:34:12;41.17;;;21.03;;
12429;SDS011;6279;42.192;24.326;2024-01-15T00:36:37;37.70;;;24.37;;
12429;SDS011;6279;42.192;24.326;2024-01-15T00:39:02;35.40;;;20.97;;
12429;SDS011;6279;42.192;24.326;2024-01-15T00:41:30;35.13;;;22.07;;
12429;SDS011;6279;42.192;24.326;2024-01-15T00:43:56;37.50;;;22.63;;
12429;SDS011;6279;42.192;24.326;2024-01-15T00:46:21;38.50;;;22.27;;
12429;SDS011;6279;42.192;24.326;2024-01-15T00:48:47;40.87;;;24.93;;
12429;SDS011;6279;42.192;24.326;2024-01-15T00:51:12;36.47;;;22.53;;
12429;SDS011;6279;42.192;24.326;2024-01-15T00:53:38;36.37;;;22.97;;
12429;SDS011;6279;42.192;24.326;2024-01-15T00:56:03;33.93;;;21.97;;
12429;SDS011;6279;42.192;24.326;2024-01-15T00:58:29;34.57;;;21.27;;
12429;SDS011;6279;42.192;24.326;2024-01-15T01:00:54;35.00;;;20.87;;
12429;SDS011;6279;42.192;24.326;2024-01-15T01:03:20;34.00;;;21.53;;
12429;SDS011;6279;42.192;24.326;2024-01-15T01:05:45;34.33;;;21.63;;
12429;SDS011;6279;42.192;24.326;2024-01-15T01:08:13;35.63;;;20.97;;
12429;SDS011;6279;42.192;24.326;2024-01-15T01:10:38;35.80;;;21.57;;
12429;SDS011;6279;42.192;24.326;2024-01-15T01:13:03;35.97;;;22.93;;
12429;SDS011;6279;42.192;24.326;2024-01-15T01:15:29;39.20;;;25.40;;
12429;SDS011;6279;42.192;24.326;2024-01-15T01:17:54;40.07;;;23.67;;
12429;SDS011;6279;42.192;24.326;2024-01-15T01:20:20;38.33;;;23.47;;
12429;SDS011;6279;42.192;24.326;2024-01-15T01:22:45;42.97;;;24.97;;
12429;SDS011;6279;42.192;24.326;2024-01-15T01:25:11;73.10;;;40.60;;
12429;SDS011;6279;42.192;24.326;2024-01-15T01:27:36;57.70;;;31.73;;
12429;SDS011;6279;42.192;24.326;2024-01-15T01:30:01;45.30;;;27.27;;
12429;SDS011;6279;42.192;24.326;2024-01-15T01:32:28;48.70;;;28.00;;
12429;SDS011;6279;42.192;24.326;2024-01-15T01:34:54;51.20;;;29.70;;
12429;SDS011;6279;42.192;24.326;2024-01-15T01:37:19;59.23;;;34.20;;
12429;SDS011;6279;42.192;24.326;2024-01-15T01:39:45;51.67;;;31.83;;
12429;SDS011;6279;42.192;24.326;2024-01-15T01:42:11;53.03;;;30.83;;
12429;SDS011;6279;42.192;24.326;2024-01-15T01:44:36;50.50;;;31.10;;
12429;SDS011;6279;42.192;24.326;2024-01-15T01:47:02;51.47;;;29.33;;
12429;SDS011;6279;42.192;24.326;2024-01-15T01:49:29;50.03;;;28.93;;
12429;SDS011;6279;42.192;24.326;2024-01-15T01:51:58;42.67;;;26.50;;
12429;SDS011;6279;42.192;24.326;2024-01-15T01:54:26;46.70;;;24.90;;
12429;SDS011;6279;42.192;24.326;2024-01-15T01:56:54;49.30;;;28.77;;
12429;SDS011;6279;42.192;24.326;2024-01-15T01:59:21;45.27;;;26.33;;
12429;SDS011;6279;42.192;24.326;2024-01-15T02:01:48;36.50;;;21.53;;
12429;SDS011;6279;42.192;24.326;2024-01-15T02:04:14;33.63;;;21.30;;
12429;SDS011;6279;42.192;24.326;2024-01-15T02:06:41;35.60;;;22.90;;
12429;SDS011;6279;42.192;24.326;2024-01-15T02:09:07;35.77;;;21.80;;
12429;SDS011;6279;42.192;24.326;2024-01-15T02:11:33;30.63;;;18.40;;
12429;SDS011;6279;42.192;24.326;2024-01-15T02:13:58;29.00;;;18.23;;
12429;SDS011;6279;42.192;24.326;2024-01-15T02:16:24;26.97;;;16.97;;
12429;SDS011;6279;42.192;24.326;2024-01-15T02:18:49;29.30;;;17.07;;
12429;SDS011;6279;42.192;24.326;2024-01-15T02:21:15;28.50;;;17.83;;
12429;SDS011;6279;42.192;24.326;2024-01-15T02:23:40;30.10;;;18.37;;
12429;SDS011;6279;42.192;24.326;2024-01-15T02:26:06;27.83;;;17.37;;
12429;SDS011;6279;42.192;24.326;2024-01-15T02:28:33;28.70;;;17.20;;
12429;SDS011;6279;42.192;24.326;2024-01-15T02:30:59;26.30;;;16.67;;
12429;SDS011;6279;42.192;24.326;2024-01-15T02:33:25;29.77;;;18.00;;
12429;SDS011;6279;42.192;24.326;2024-01-15T02:35:50;28.37;;;17.83;;
12429;SDS011;6279;42.192;24.326;2024-01-15T02:38:16;34.53;;;20.33;;
12429;SDS011;6279;42.192;24.326;2024-01-15T02:40:41;32.20;;;19.90;;
12429;SDS011;6279;42.192;24.326;2024-01-15T02:43:08;30.10;;;18.13;;
12429;SDS011;6279;42.192;24.326;2024-01-15T02:45:33;35.20;;;19.00;;
12429;SDS011;6279;42.192;24.326;2024-01-15T02:47:59;29.40;;;17.63;;
12429;SDS011;6279;42.192;24.326;2024-01-15T02:50:24;27.43;;;17.17;;
12429;SDS011;6279;42.192;24.326;2024-01-15T02:52:50;26.20;;;16.40;;
12429;SDS011;6279;42.192;24.326;2024-01-15T02:55:15;30.23;;;18.00;;
12429;SDS011;6279;42.192;24.326;2024-01-15T02:57:41;29.07;;;17.20;;
12429;SDS011;6279;42.192;24.326;2024-01-15T03:00:06;25.70;;;17.03;;
12429;SDS011;6279;42.192;24.326;2024-01-15T03:02:32;27.67;;;16.90;;
12429;SDS011;6279;42.192;24.326;2024-01-15T03:04:58;29.20;;;18.03;;
12429;SDS011;6279;42.192;24.326;2024-01-15T03:07:23;29.80;;;17.37;;
12429;SDS011;6279;42.192;24.326;2024-01-15T03:09:49;33.47;;;19.80;;
12429;SDS011;6279;42.192;24.326;2024-01-15T03:12:15;34.83;;;20.60;;
12429;SDS011;6279;42.192;24.326;2024-01-15T03:14:40;29.03;;;19.93;;
12429;SDS011;6279;42.192;24.326;2024-01-15T03:17:06;37.23;;;20.73;;
12429;SDS011;6279;42.192;24.326;2024-01-15T03:19:34;40.93;;;24.27;;
12429;SDS011;6279;42.192;24.326;2024-01-15T03:22:00;39.57;;;21.97;;
12429;SDS011;6279;42.192;24.326;2024-01-15T03:24:27;36.47;;;21.57;;
12429;SDS011;6279;42.192;24.326;2024-01-15T03:26:56;35.63;;;21.07;;
12429;SDS011;6279;42.192;24.326;2024-01-15T03:29:21;37.83;;;24.00;;
12429;SDS011;6279;42.192;24.326;2024-01-15T03:31:47;40.63;;;23.97;;
12429;SDS011;6279;42.192;24.326;2024-01-15T03:34:12;42.17;;;25.33;;
12429;SDS011;6279;42.192;24.326;2024-01-15T03:36:37;38.97;;;23.87;;
12429;SDS011;6279;42.192;24.326;2024-01-15T03:39:03;42.00;;;26.93;;
12429;SDS011;6279;42.192;24.326;2024-01-15T03:41:28;69.83;;;38.07;;
12429;SDS011;6279;42.192;24.326;2024-01-15T03:43:53;62.03;;;36.47;;
12429;SDS011;6279;42.192;24.326;2024-01-15T03:46:19;65.73;;;38.37;;
12429;SDS011;6279;42.192;24.326;2024-01-15T03:48:44;61.97;;;40.27;;
12429;SDS011;6279;42.192;24.326;2024-01-15T03:51:10;59.67;;;38.47;;
12429;SDS011;6279;42.192;24.326;2024-01-15T03:53:35;61.33;;;38.43;;
12429;SDS011;6279;42.192;24.326;2024-01-15T03:56:01;65.13;;;39.70;;
12429;SDS011;6279;42.192;24.326;2024-01-15T03:58:26;64.57;;;39.97;;
12429;SDS011;6279;42.192;24.326;2024-01-15T04:00:52;86.00;;;52.40;;
12429;SDS011;6279;42.192;24.326;2024-01-15T04:03:17;85.83;;;50.80;;
12429;SDS011;6279;42.192;24.326;2024-01-15T04:05:43;79.30;;;49.63;;
12429;SDS011;6279;42.192;24.326;2024-01-15T04:08:08;69.83;;;43.93;;
12429;SDS011;6279;42.192;24.326;2024-01-15T04:10:34;68.17;;;41.23;;
12429;SDS011;6279;42.192;24.326;2024-01-15T04:12:59;60.63;;;36.27;;
12429;SDS011;6279;42.192;24.326;2024-01-15T04:15:26;51.23;;;30.77;;
12429;SDS011;6279;42.192;24.326;2024-01-15T04:17:52;53.50;;;31.20;;
12429;SDS011;6279;42.192;24.326;2024-01-15T04:20:17;48.80;;;28.73;;
12429;SDS011;6279;42.192;24.326;2024-01-15T04:22:43;47.90;;;27.57;;
12429;SDS011;6279;42.192;24.326;2024-01-15T04:25:09;46.50;;;26.97;;
12429;SDS011;6279;42.192;24.326;2024-01-15T04:27:34;45.13;;;27.70;;
12429;SDS011;6279;42.192;24.326;2024-01-15T04:30:00;44.93;;;26.50;;
12429;SDS011;6279;42.192;24.326;2024-01-15T04:32:25;44.90;;;27.67;;
12429;SDS011;6279;42.192;24.326;2024-01-15T04:34:51;43.17;;;27.00;;
12429;SDS011;6279;42.192;24.326;2024-01-15T04:37:16;36.93;;;22.83;;
12429;SDS011;6279;42.192;24.326;2024-01-15T04:39:41;34.83;;;23.17;;
12429;SDS011;6279;42.192;24.326;2024-01-15T04:42:07;37.47;;;21.30;;
12429;SDS011;6279;42.192;24.326;2024-01-15T04:44:32;39.20;;;23.77;;
12429;SDS011;6279;42.192;24.326;2024-01-15T04:46:58;34.83;;;20.90;;
12429;SDS011;6279;42.192;24.326;2024-01-15T04:49:23;34.60;;;21.40;;
12429;SDS011;6279;42.192;24.326;2024-01-15T04:51:51;33.50;;;20.30;;
12429;SDS011;6279;42.192;24.326;2024-01-15T04:54:16;37.40;;;21.00;;
12429;SDS011;6279;42.192;24.326;2024-01-15T04:56:43;33.73;;;20.63;;
12429;SDS011;6279;42.192;24.326;2024-01-15T04:59:09;30.53;;;20.40;;
12429;SDS011;6279;42.192;24.326;2024-01-15T05:01:34;33.43;;;19.17;;
12429;SDS011;6279;42.192;24.326;2024-01-15T05:04:00;31.33;;;19.83;;
12429;SDS011;6279;42.192;24.326;2024-01-15T05:06:25;30.50;;;20.43;;
12429;SDS011;6279;42.192;24.326;2024-01-15T05:08:51;35.07;;;17.40;;
12429;SDS011;6279;42.192;24.326;2024-01-15T05:11:16;31.53;;;17.43;;
12429;SDS011;6279;42.192;24.326;2024-01-15T05:13:41;28.20;;;16.60;;
12429;SDS011;6279;42.192;24.326;2024-01-15T05:16:07;25.80;;;16.60;;
12429;SDS011;6279;42.192;24.326;2024-01-15T05:18:32;24.33;;;15.07;;
12429;SDS011;6279;42.192;24.326;2024-01-15T05:20:58;26.50;;;16.80;;
12429;SDS011;6279;42.192;24.326;2024-01-15T05:23:23;38.60;;;24.07;;
12429;SDS011;6279;42.192;24.326;2024-01-15T05:25:49;31.80;;;19.80;;
12429;SDS011;6279;42.192;24.326;2024-01-15T05:28:14;57.07;;;26.63;;
12429;SDS011;6279;42.192;24.326;2024-01-15T05:30:40;34.87;;;22.77;;
12429;SDS011;6279;42.192;24.326;2024-01-15T05:33:05;42.30;;;25.73;;
12429;SDS011;6279;42.192;24.326;2024-01-15T05:35:32;38.07;;;25.30;;
12429;SDS011;6279;42.192;24.326;2024-01-15T05:37:58;42.83;;;29.27;;
12429;SDS011;6279;42.192;24.326;2024-01-15T05:40:23;36.47;;;23.30;;
12429;SDS011;6279;42.192;24.326;2024-01-15T05:42:48;34.23;;;22.37;;
12429;SDS011;6279;42.192;24.326;2024-01-15T05:45:14;31.67;;;20.23;;
12429;SDS011;6279;42.192;24.326;2024-01-15T05:47:39;35.23;;;21.57;;
12429;SDS011;6279;42.192;24.326;2024-01-15T05:50:05;35.03;;;21.73;;
12429;SDS011;6279;42.192;24.326;2024-01-15T05:52:33;35.70;;;21.13;;
12429;SDS011;6279;42.192;24.326;2024-01-15T05:54:58;37.77;;;21.20;;
12429;SDS011;6279;42.192;24.326;2024-01-15T05:57:24;39.67;;;23.03;;
12429;SDS011;6279;42.192;24.326;2024-01-15T05:59:49;32.70;;;22.17;;
12429;SDS011;6279;42.192;24.326;2024-01-15T06:02:15;41.83;;;22.63;;
12429;SDS011;6279;42.192;24.326;2024-01-15T06:04:52;39.47;;;24.40;;
12429;SDS011;6279;42.192;24.326;2024-01-15T06:07:17;38.47;;;24.50;;
12429;SDS011;6279;42.192;24.326;2024-01-15T06:09:43;47.17;;;28.07;;
12429;SDS011;6279;42.192;24.326;2024-01-15T06:12:08;55.87;;;31.43;;
12429;SDS011;6279;42.192;24.326;2024-01-15T06:14:34;61.20;;;34.07;;
12429;SDS011;6279;42.192;24.326;2024-01-15T06:16:59;69.10;;;33.57;;
12429;SDS011;6279;42.192;24.326;2024-01-15T06:19:24;69.93;;;40.43;;
12429;SDS011;6279;42.192;24.326;2024-01-15T06:21:50;90.40;;;52.33;;
12429;SDS011;6279;42.192;24.326;2024-01-15T06:24:15;82.80;;;48.40;;
12429;SDS011;6279;42.192;24.326;2024-01-15T06:26:42;80.00;;;44.90;;
12429;SDS011;6279;42.192;24.326;2024-01-15T06:29:08;68.63;;;42.20;;
12429;SDS011;6279;42.192;24.326;2024-01-15T06:31:33;63.70;;;38.83;;
12429;SDS011;6279;42.192;24.326;2024-01-15T06:33:59;57.67;;;35.57;;
12429;SDS011;6279;42.192;24.326;2024-01-15T06:36:24;65.17;;;38.23;;
12429;SDS011;6279;42.192;24.326;2024-01-15T06:38:49;98.00;;;53.07;;
12429;SDS011;6279;42.192;24.326;2024-01-15T06:41:15;63.73;;;38.47;;
12429;SDS011;6279;42.192;24.326;2024-01-15T06:43:40;64.73;;;39.50;;
12429;SDS011;6279;42.192;24.326;2024-01-15T06:46:06;75.50;;;47.20;;
12429;SDS011;6279;42.192;24.326;2024-01-15T06:48:31;62.93;;;41.03;;
12429;SDS011;6279;42.192;24.326;2024-01-15T06:50:56;76.63;;;51.30;;
12429;SDS011;6279;42.192;24.326;2024-01-15T06:53:22;76.50;;;50.73;;
12429;SDS011;6279;42.192;24.326;2024-01-15T06:55:47;61.87;;;36.27;;
12429;SDS011;6279;42.192;24.326;2024-01-15T06:58:14;47.70;;;30.50;;
12429;SDS011;6279;42.192;24.326;2024-01-15T07:00:39;48.70;;;31.60;;
12429;SDS011;6279;42.192;24.326;2024-01-15T07:03:05;46.23;;;30.60;;
12429;SDS011;6279;42.192;24.326;2024-01-15T07:05:31;47.33;;;28.80;;
12429;SDS011;6279;42.192;24.326;2024-01-15T07:07:57;52.87;;;31.37;;
12429;SDS011;6279;42.192;24.326;2024-01-15T07:10:22;53.40;;;33.23;;
12429;SDS011;6279;42.192;24.326;2024-01-15T07:12:48;56.37;;;35.33;;
12429;SDS011;6279;42.192;24.326;2024-01-15T07:15:13;66.67;;;38.33;;
12429;SDS011;6279;42.192;24.326;2024-01-15T07:17:40;70.20;;;41.30;;
12429;SDS011;6279;42.192;24.326;2024-01-15T07:20:06;59.93;;;37.00;;
12429;SDS011;6279;42.192;24.326;2024-01-15T07:22:35;55.07;;;35.10;;
12429;SDS011;6279;42.192;24.326;2024-01-15T07:25:05;63.73;;;38.03;;
12429;SDS011;6279;42.192;24.326;2024-01-15T07:27:31;54.37;;;34.53;;
12429;SDS011;6279;42.192;24.326;2024-01-15T07:29:57;61.10;;;36.93;;
12429;SDS011;6279;42.192;24.326;2024-01-15T07:32:23;50.40;;;32.20;;
12429;SDS011;6279;42.192;24.326;2024-01-15T07:34:48;47.50;;;29.90;;
12429;SDS011;6279;42.192;24.326;2024-01-15T07:37:14;55.67;;;33.93;;
12429;SDS011;6279;42.192;24.326;2024-01-15T07:39:40;64.17;;;39.17;;
12429;SDS011;6279;42.192;24.326;2024-01-15T07:42:05;83.07;;;55.20;;
12429;SDS011;6279;42.192;24.326;2024-01-15T07:44:31;86.53;;;59.17;;
12429;SDS011;6279;42.192;24.326;2024-01-15T07:46:56;82.67;;;54.23;;
12429;SDS011;6279;42.192;24.326;2024-01-15T07:49:21;96.67;;;52.40;;
12429;SDS011;6279;42.192;24.326;2024-01-15T07:51:48;84.27;;;47.40;;
12429;SDS011;6279;42.192;24.326;2024-01-15T07:54:14;77.53;;;43.63;;
12429;SDS011;6279;42.192;24.326;2024-01-15T07:56:55;72.30;;;40.63;;
12429;SDS011;6279;42.192;24.326;2024-01-15T07:59:22;74.23;;;41.63;;
12429;SDS011;6279;42.192;24.326;2024-01-15T08:01:48;71.87;;;39.97;;
12429;SDS011;6279;42.192;24.326;2024-01-15T08:04:13;61.10;;;35.73;;
12429;SDS011;6279;42.192;24.326;2024-01-15T08:06:39;52.57;;;32.27;;
12429;SDS011;6279;42.192;24.326;2024-01-15T08:09:04;48.60;;;28.87;;
12429;SDS011;6279;42.192;24.326;2024-01-15T08:11:30;40.97;;;27.37;;
12429;SDS011;6279;42.192;24.326;2024-01-15T08:13:55;48.43;;;28.70;;
12429;SDS011;6279;42.192;24.326;2024-01-15T08:16:21;50.83;;;31.07;;
12429;SDS011;6279;42.192;24.326;2024-01-15T08:18:47;53.70;;;32.30;;
12429;SDS011;6279;42.192;24.326;2024-01-15T08:21:12;54.40;;;31.83;;
12429;SDS011;6279;42.192;24.326;2024-01-15T08:23:38;54.97;;;31.00;;
12429;SDS011;6279;42.192;24.326;2024-01-15T08:26:04;39.07;;;26.03;;
12429;SDS011;6279;42.192;24.326;2024-01-15T08:28:29;36.23;;;24.43;;
12429;SDS011;6279;42.192;24.326;2024-01-15T08:30:55;34.07;;;22.03;;
12429;SDS011;6279;42.192;24.326;2024-01-15T08:33:21;39.27;;;25.00;;
12429;SDS011;6279;42.192;24.326;2024-01-15T08:35:46;33.93;;;23.00;;
12429;SDS011;6279;42.192;24.326;2024-01-15T08:38:12;33.53;;;22.43;;
12429;SDS011;6279;42.192;24.326;2024-01-15T08:40:37;28.33;;;19.80;;
12429;SDS011;6279;42.192;24.326;2024-01-15T08:43:02;37.27;;;23.20;;
12429;SDS011;6279;42.192;24.326;2024-01-15T08:45:28;33.00;;;22.23;;
12429;SDS011;6279;42.192;24.326;2024-01-15T08:47:53;41.47;;;25.83;;
12429;SDS011;6279;42.192;24.326;2024-01-15T08:50:19;36.13;;;23.73;;
12429;SDS011;6279;42.192;24.326;2024-01-15T08:52:44;31.30;;;22.13;;
12429;SDS011;6279;42.192;24.326;2024-01-15T08:55:11;30.83;;;21.37;;
12429;SDS011;6279;42.192;24.326;2024-01-15T08:57:38;30.90;;;21.47;;
12429;SDS011;6279;42.192;24.326;2024-01-15T09:00:03;30.07;;;20.73;;
12429;SDS011;6279;42.192;24.326;2024-01-15T09:02:33;27.03;;;18.80;;
12429;SDS011;6279;42.192;24.326;2024-01-15T09:04:59;26.87;;;18.70;;
12429;SDS011;6279;42.192;24.326;2024-01-15T09:07:24;29.00;;;20.80;;
12429;SDS011;6279;42.192;24.326;2024-01-15T09:09:51;56.33;;;33.87;;
12429;SDS011;6279;42.192;24.326;2024-01-15T09:12:16;43.70;;;28.03;;
12429;SDS011;6279;42.192;24.326;2024-01-15T09:14:43;29.33;;;21.77;;
12429;SDS011;6279;42.192;24.326;2024-01-15T09:17:09;32.80;;;21.97;;
12429;SDS011;6279;42.192;24.326;2024-01-15T09:19:34;30.27;;;20.67;;
12429;SDS011;6279;42.192;24.326;2024-01-15T09:22:00;30.80;;;21.13;;
12429;SDS011;6279;42.192;24.326;2024-01-15T09:24:28;30.13;;;21.27;;
12429;SDS011;6279;42.192;24.326;2024-01-15T09:26:53;27.53;;;18.67;;
12429;SDS011;6279;42.192;24.326;2024-01-15T09:29:19;31.10;;;20.20;;
12429;SDS011;6279;42.192;24.326;2024-01-15T09:31:44;29.77;;;20.63;;
12429;SDS011;6279;42.192;24.326;2024-01-15T09:34:10;31.17;;;20.70;;
12429;SDS011;6279;42.192;24.326;2024-01-15T09:36:39;31.77;;;21.10;;
12429;SDS011;6279;42.192;24.326;2024-01-15T09:39:08;36.40;;;23.93;;
12429;SDS011;6279;42.192;24.326;2024-01-15T09:41:36;35.07;;;23.97;;
12429;SDS011;6279;42.192;24.326;2024-01-15T09:44:02;41.00;;;24.63;;
12429;SDS011;6279;42.192;24.326;2024-01-15T09:46:28;30.90;;;20.30;;
12429;SDS011;6279;42.192;24.326;2024-01-15T09:48:54;31.83;;;21.40;;
12429;SDS011;6279;42.192;24.326;2024-01-15T09:51:20;32.10;;;20.90;;
12429;SDS011;6279;42.192;24.326;2024-01-15T09:53:46;30.23;;;18.57;;
12429;SDS011;6279;42.192;24.326;2024-01-15T09:56:13;28.60;;;16.90;;
12429;SDS011;6279;42.192;24.326;2024-01-15T09:58:41;41.10;;;22.67;;
12429;SDS011;6279;42.192;24.326;2024-01-15T10:01:07;44.60;;;32.53;;
12429;SDS011;6279;42.192;24.326;2024-01-15T10:03:34;26.50;;;19.37;;
12429;SDS011;6279;42.192;24.326;2024-01-15T10:05:59;28.20;;;19.93;;
12429;SDS011;6279;42.192;24.326;2024-01-15T10:08:25;28.87;;;18.33;;
12429;SDS011;6279;42.192;24.326;2024-01-15T10:10:50;32.33;;;17.10;;
12429;SDS011;6279;42.192;24.326;2024-01-15T10:13:16;32.60;;;18.50;;
12429;SDS011;6279;42.192;24.326;2024-01-15T10:15:44;27.00;;;17.27;;
12429;SDS011;6279;42.192;24.326;2024-01-15T10:18:11;35.37;;;19.07;;
12429;SDS011;6279;42.192;24.326;2024-01-15T10:20:37;30.30;;;19.67;;
12429;SDS011;6279;42.192;24.326;2024-01-15T10:23:02;31.77;;;22.57;;
12429;SDS011;6279;42.192;24.326;2024-01-15T10:25:29;36.70;;;21.50;;
12429;SDS011;6279;42.192;24.326;2024-01-15T10:28:02;24.37;;;15.87;;
12429;SDS011;6279;42.192;24.326;2024-01-15T10:30:28;28.77;;;17.60;;
12429;SDS011;6279;42.192;24.326;2024-01-15T10:32:57;32.03;;;17.93;;
12429;SDS011;6279;42.192;24.326;2024-01-15T10:35:26;27.47;;;18.23;;
12429;SDS011;6279;42.192;24.326;2024-01-15T10:37:55;25.10;;;17.23;;
12429;SDS011;6279;42.192;24.326;2024-01-15T10:40:21;36.13;;;20.80;;
12429;SDS011;6279;42.192;24.326;2024-01-15T10:42:46;37.43;;;19.10;;
12429;SDS011;6279;42.192;24.326;2024-01-15T10:45:13;30.80;;;19.10;;
12429;SDS011;6279;42.192;24.326;2024-01-15T10:47:38;27.57;;;18.87;;
12429;SDS011;6279;42.192;24.326;2024-01-15T10:50:04;31.07;;;16.53;;
12429;SDS011;6279;42.192;24.326;2024-01-15T10:52:32;26.03;;;16.20;;
12429;SDS011;6279;42.192;24.326;2024-01-15T10:54:59;24.83;;;16.07;;
12429;SDS011;6279;42.192;24.326;2024-01-15T10:57:25;27.70;;;17.30;;
12429;SDS011;6279;42.192;24.326;2024-01-15T10:59:51;30.87;;;17.70;;
12429;SDS011;6279;42.192;24.326;2024-01-15T11:02:16;27.87;;;18.20;;
12429;SDS011;6279;42.192;24.326;2024-01-15T11:04:42;28.57;;;18.00;;
12429;SDS011;6279;42.192;24.326;2024-01-15T11:07:07;28.10;;;17.83;;
12429;SDS011;6279;42.192;24.326;2024-01-15T11:09:34;24.27;;;16.27;;
12429;SDS011;6279;42.192;24.326;2024-01-15T11:17:10;20.80;;;13.83;;
12429;SDS011;6279;42.192;24.326;2024-01-15T11:19:50;22.57;;;15.77;;
12429;SDS011;6279;42.192;24.326;2024-01-15T11:25:17;24.13;;;16.27;;
12429;SDS011;6279;42.192;24.326;2024-01-15T11:27:44;24.60;;;16.60;;
12429;SDS011;6279;42.192;24.326;2024-01-15T11:30:12;27.63;;;16.40;;
12429;SDS011;6279;42.192;24.326;2024-01-15T11:32:38;25.03;;;16.10;;
12429;SDS011;6279;42.192;24.326;2024-01-15T11:35:07;22.90;;;16.43;;
12429;SDS011;6279;42.192;24.326;2024-01-15T11:40:20;28.27;;;17.60;;
12429;SDS011;6279;42.192;24.326;2024-01-15T11:43:02;25.97;;;17.67;;
12429;SDS011;6279;42.192;24.326;2024-01-15T11:45:28;23.67;;;17.10;;
12429;SDS011;6279;42.192;24.326;2024-01-15T11:50:43;29.03;;;16.57;;
12429;SDS011;6279;42.192;24.326;2024-01-15T11:53:14;24.50;;;17.17;;
12429;SDS011;6279;42.192;24.326;2024-01-15T11:55:44;29.40;;;17.23;;
12429;SDS011;6279;42.192;24.326;2024-01-15T11:58:10;30.73;;;20.03;;
12429;SDS011;6279;42.192;24.326;2024-01-15T12:00:43;28.37;;;19.83;;
12429;SDS011;6279;42.192;24.326;2024-01-15T12:03:10;35.03;;;19.03;;
12429;SDS011;6279;42.192;24.326;2024-01-15T12:05:39;27.53;;;18.60;;
12429;SDS011;6279;42.192;24.326;2024-01-15T12:08:06;29.73;;;19.93;;
12429;SDS011;6279;42.192;24.326;2024-01-15T12:10:39;30.50;;;18.43;;
12429;SDS011;6279;42.192;24.326;2024-01-15T12:13:12;29.87;;;19.60;;
12429;SDS011;6279;42.192;24.326;2024-01-15T12:15:39;31.33;;;20.47;;
12429;SDS011;6279;42.192;24.326;2024-01-15T12:18:06;35.60;;;21.43;;
12429;SDS011;6279;42.192;24.326;2024-01-15T12:20:33;38.23;;;21.20;;
12429;SDS011;6279;42.192;24.326;2024-01-15T12:22:59;36.10;;;21.93;;
12429;SDS011;6279;42.192;24.326;2024-01-15T12:25:26;31.83;;;21.97;;
12429;SDS011;6279;42.192;24.326;2024-01-15T12:27:52;36.23;;;21.57;;
12429;SDS011;6279;42.192;24.326;2024-01-15T12:30:18;34.67;;;21.43;;
12429;SDS011;6279;42.192;24.326;2024-01-15T12:32:44;43.37;;;22.90;;
12429;SDS011;6279;42.192;24.326;2024-01-15T12:35:12;37.53;;;23.03;;
12429;SDS011;6279;42.192;24.326;2024-01-15T12:37:41;37.67;;;22.77;;
12429;SDS011;6279;42.192;24.326;2024-01-15T12:40:08;32.03;;;22.17;;
12429;SDS011;6279;42.192;24.326;2024-01-15T12:42:41;40.23;;;25.07;;
12429;SDS011;6279;42.192;24.326;2024-01-15T12:45:07;38.03;;;23.53;;
12429;SDS011;6279;42.192;24.326;2024-01-15T12:47:34;35.47;;;22.37;;
12429;SDS011;6279;42.192;24.326;2024-01-15T12:50:00;34.17;;;20.73;;
12429;SDS011;6279;42.192;24.326;2024-01-15T12:52:28;35.67;;;22.43;;
12429;SDS011;6279;42.192;24.326;2024-01-15T12:54:54;36.43;;;23.23;;
12429;SDS011;6279;42.192;24.326;2024-01-15T12:57:20;49.57;;;27.87;;
12429;SDS011;6279;42.192;24.326;2024-01-15T12:59:45;41.03;;;23.80;;
12429;SDS011;6279;42.192;24.326;2024-01-15T13:02:12;60.97;;;35.83;;
12429;SDS011;6279;42.192;24.326;2024-01-15T13:04:38;51.57;;;32.73;;
12429;SDS011;6279;42.192;24.326;2024-01-15T13:07:03;36.23;;;24.23;;
12429;SDS011;6279;42.192;24.326;2024-01-15T13:09:30;35.10;;;22.73;;
12429;SDS011;6279;42.192;24.326;2024-01-15T13:11:55;31.30;;;21.67;;
12429;SDS011;6279;42.192;24.326;2024-01-15T13:14:21;33.77;;;22.33;;
12429;SDS011;6279;42.192;24.326;2024-01-15T13:16:46;32.40;;;22.03;;
12429;SDS011;6279;42.192;24.326;2024-01-15T13:19:11;48.27;;;25.97;;
12429;SDS011;6279;42.192;24.326;2024-01-15T13:21:38;32.50;;;20.87;;
12429;SDS011;6279;42.192;24.326;2024-01-15T13:24:05;33.90;;;20.90;;
12429;SDS011;6279;42.192;24.326;2024-01-15T13:26:31;36.00;;;20.63;;
12429;SDS011;6279;42.192;24.326;2024-01-15T13:28:57;33.03;;;21.10;;
12429;SDS011;6279;42.192;24.326;2024-01-15T13:31:23;36.57;;;20.50;;
12429;SDS011;6279;42.192;24.326;2024-01-15T13:33:49;25.73;;;17.13;;
12429;SDS011;6279;42.192;24.326;2024-01-15T13:36:14;30.17;;;18.97;;
12429;SDS011;6279;42.192;24.326;2024-01-15T13:38:40;33.87;;;21.67;;
12429;SDS011;6279;42.192;24.326;2024-01-15T13:41:06;30.87;;;17.93;;
12429;SDS011;6279;42.192;24.326;2024-01-15T13:43:32;28.30;;;16.53;;
12429;SDS011;6279;42.192;24.326;2024-01-15T13:45:58;32.00;;;19.43;;
12429;SDS011;6279;42.192;24.326;2024-01-15T13:48:24;27.10;;;15.40;;
12429;SDS011;6279;42.192;24.326;2024-01-15T13:50:49;26.13;;;18.00;;
12429;SDS011;6279;42.192;24.326;2024-01-15T13:53:15;25.77;;;16.43;;
12429;SDS011;6279;42.192;24.326;2024-01-15T13:55:41;24.37;;;16.33;;
12429;SDS011;6279;42.192;24.326;2024-01-15T13:58:06;27.13;;;16.73;;
12429;SDS011;6279;42.192;24.326;2024-01-15T14:00:32;30.97;;;19.00;;
12429;SDS011;6279;42.192;24.326;2024-01-15T14:02:58;28.00;;;16.57;;
12429;SDS011;6279;42.192;24.326;2024-01-15T14:05:24;27.67;;;15.97;;
12429;SDS011;6279;42.192;24.326;2024-01-15T14:07:49;24.67;;;15.87;;
12429;SDS011;6279;42.192;24.326;2024-01-15T14:10:14;27.77;;;17.10;;
12429;SDS011;6279;42.192;24.326;2024-01-15T14:12:40;28.97;;;16.67;;
12429;SDS011;6279;42.192;24.326;2024-01-15T14:15:05;25.57;;;16.43;;
12429;SDS011;6279;42.192;24.326;2024-01-15T14:17:31;29.37;;;18.33;;
12429;SDS011;6279;42.192;24.326;2024-01-15T14:19:57;32.27;;;21.00;;
12429;SDS011;6279;42.192;24.326;2024-01-15T14:22:22;32.77;;;18.87;;
12429;SDS011;6279;42.192;24.326;2024-01-15T14:24:48;42.07;;;18.07;;
12429;SDS011;6279;42.192;24.326;2024-01-15T14:27:14;26.63;;;17.00;;